createdAt,value
2022-08-05T00:01:29.255Z,1.67
2022-08-05T00:03:57.556Z,1.80
2022-08-05T00:06:30.661Z,1.65
2022-08-05T00:09:00.633Z,1.98
2022-08-05T00:11:34.771Z,1.55
2022-08-05T00:14:13.065Z,2.30
2022-08-05T00:16:53.379Z,1.90
2022-08-05T00:19:22.463Z,1.45
2022-08-05T00:21:50.387Z,1.65
2022-08-05T00:24:24.224Z,1.77
2022-08-05T00:26:52.930Z,1.83
2022-08-05T00:29:25.688Z,1.70
2022-08-05T00:32:12.114Z,1.40
2022-08-05T00:34:53.818Z,1.83
2022-08-05T00:37:51.240Z,1.90
2022-08-05T00:40:17.753Z,1.27
2022-08-05T00:42:53.982Z,1.50
2022-08-05T00:45:28.150Z,1.50
2022-08-05T00:48:07.139Z,1.33
2022-08-05T00:50:34.993Z,1.40
2022-08-05T00:53:03.096Z,1.97
2022-08-05T00:55:42.883Z,1.70
2022-08-05T00:58:16.750Z,1.70
2022-08-05T01:00:47.024Z,1.60
2022-08-05T01:03:23.035Z,1.25
2022-08-05T01:05:54.675Z,1.00
2022-08-05T01:08:30.676Z,1.73
2022-08-05T01:11:10.218Z,1.30
2022-08-05T01:14:00.127Z,1.50
2022-08-05T01:16:31.500Z,1.63
2022-08-05T01:19:07.204Z,1.30
2022-08-05T01:21:38.210Z,1.40
2022-08-05T01:24:22.004Z,1.20
2022-08-05T01:27:17.823Z,1.33
2022-08-05T01:29:49.524Z,1.27
2022-08-05T01:32:21.865Z,1.37
2022-08-05T01:34:57.717Z,1.63
2022-08-05T01:37:28.599Z,1.40
2022-08-05T01:39:59.022Z,1.70
2022-08-05T01:42:27.398Z,1.42
2022-08-05T01:44:56.836Z,1.30
2022-08-05T01:47:38.831Z,1.35
2022-08-05T01:50:09.219Z,1.00
2022-08-05T01:52:43.655Z,1.55
2022-08-05T01:55:13.032Z,1.10
2022-08-05T01:58:10.982Z,1.50
2022-08-05T02:00:35.251Z,1.65
2022-08-05T02:03:05.000Z,1.42
2022-08-05T02:05:34.287Z,1.50
2022-08-05T02:08:03.403Z,1.38
2022-08-05T02:10:34.805Z,1.37
2022-08-05T02:13:21.102Z,1.83
2022-08-05T02:15:51.541Z,1.35
2022-08-05T02:18:32.320Z,1.40
2022-08-05T02:21:17.013Z,1.35
2022-08-05T02:23:46.088Z,1.30
2022-08-05T02:26:14.252Z,1.38
2022-08-05T02:28:46.462Z,1.38
2022-08-05T02:31:16.691Z,1.15
2022-08-05T02:33:57.780Z,1.30
2022-08-05T02:36:27.666Z,1.00
2022-08-05T02:38:59.094Z,1.60
2022-08-05T02:41:28.420Z,1.30
2022-08-05T02:44:06.842Z,1.65
2022-08-05T02:46:53.826Z,1.50
2022-08-05T02:49:36.424Z,1.33
2022-08-05T02:52:05.977Z,1.27
2022-08-05T02:54:37.200Z,1.00
2022-08-05T02:57:10.168Z,1.50
2022-08-05T02:59:57.599Z,1.10
2022-08-05T03:02:30.609Z,1.33
2022-08-05T03:04:58.989Z,1.48
2022-08-05T03:08:01.430Z,1.60
2022-08-05T03:10:24.604Z,1.58
2022-08-05T03:12:54.043Z,1.40
2022-08-05T03:15:23.654Z,1.33
2022-08-05T03:17:54.042Z,1.38
2022-08-05T03:20:23.675Z,1.25
2022-08-05T03:22:52.035Z,1.15
2022-08-05T03:25:33.587Z,1.10
2022-08-05T03:28:08.425Z,1.40
2022-08-05T03:30:36.282Z,1.02
2022-08-05T03:33:05.742Z,1.02
2022-08-05T03:35:41.269Z,1.02
2022-08-05T03:38:11.235Z,1.10
2022-08-05T03:40:45.065Z,1.20
2022-08-05T03:43:58.646Z,1.55
2022-08-05T03:46:02.638Z,0.80
2022-08-05T03:48:30.326Z,1.65
2022-08-05T03:52:37.148Z,1.00
2022-08-05T03:55:54.081Z,1.20
2022-08-05T03:57:16.090Z,1.30
2022-08-05T03:59:55.576Z,1.10
2022-08-05T04:02:38.562Z,1.02
2022-08-05T04:05:13.170Z,0.98
2022-08-05T04:07:57.730Z,0.80
2022-08-05T04:10:37.151Z,1.02
2022-08-05T04:13:05.983Z,0.80
2022-08-05T04:15:36.218Z,1.23
2022-08-05T04:18:09.439Z,1.00
2022-08-05T04:20:37.283Z,1.03
2022-08-05T04:23:04.705Z,0.90
2022-08-05T04:25:58.000Z,0.80
2022-08-05T04:28:19.979Z,0.95
2022-08-05T04:30:58.147Z,1.20
2022-08-05T04:34:19.378Z,1.40
2022-08-05T04:36:49.449Z,0.88
2022-08-05T04:39:03.174Z,1.05
2022-08-05T04:41:37.635Z,1.23
2022-08-05T04:44:09.318Z,0.85
2022-08-05T04:46:37.661Z,1.20
2022-08-05T04:49:05.816Z,0.90
2022-08-05T04:51:39.775Z,1.00
2022-08-05T04:54:09.978Z,1.05
2022-08-05T04:56:37.503Z,1.00
2022-08-05T04:59:22.400Z,0.80
2022-08-05T05:02:06.874Z,0.98
2022-08-05T05:04:35.802Z,0.98
2022-08-05T05:07:09.402Z,1.35
2022-08-05T05:09:38.030Z,1.30
2022-08-05T05:12:06.308Z,1.23
2022-08-05T05:14:36.316Z,1.13
2022-08-05T05:17:07.289Z,1.25
2022-08-05T05:19:37.264Z,1.20
2022-08-05T05:22:24.101Z,1.10
2022-08-05T05:25:00.258Z,1.23
2022-08-05T05:27:44.545Z,1.17
2022-08-05T05:30:15.357Z,1.00
2022-08-05T05:32:56.342Z,1.00
2022-08-05T05:35:25.152Z,1.20
2022-08-05T05:37:59.745Z,1.43
2022-08-05T05:40:28.419Z,0.90
2022-08-05T05:42:56.352Z,1.25
2022-08-05T05:45:24.605Z,1.20
2022-08-05T05:48:06.967Z,0.80
2022-08-05T05:50:43.883Z,1.00
2022-08-05T05:53:21.617Z,0.88
2022-08-05T05:55:51.980Z,0.90
2022-08-05T05:58:31.845Z,0.90
2022-08-05T06:01:02.199Z,0.90
2022-08-05T06:04:01.285Z,0.80
2022-08-05T06:06:28.005Z,1.17
2022-08-05T06:08:58.822Z,0.70
2022-08-05T06:11:26.227Z,0.70
2022-08-05T06:13:56.698Z,0.80
2022-08-05T06:16:28.473Z,0.90
2022-08-05T06:19:00.267Z,1.10
2022-08-05T06:21:35.998Z,1.00
2022-08-05T06:24:11.792Z,0.88
2022-08-05T06:26:51.784Z,0.80
2022-08-05T06:29:25.208Z,1.00
2022-08-05T06:32:21.151Z,1.05
2022-08-05T06:34:53.529Z,1.15
2022-08-05T06:37:56.526Z,1.00
2022-08-05T06:40:11.868Z,0.88
2022-08-05T06:42:39.691Z,1.03
2022-08-05T06:45:08.882Z,1.15
2022-08-05T06:48:36.384Z,0.68
2022-08-05T06:50:24.975Z,0.75
2022-08-05T06:52:58.782Z,0.77
2022-08-05T06:55:36.506Z,0.80
2022-08-05T06:58:30.203Z,0.90
2022-08-05T07:00:51.931Z,0.80
2022-08-05T07:03:19.454Z,1.10
2022-08-05T07:05:55.638Z,0.85
2022-08-05T07:08:25.237Z,1.33
2022-08-05T07:10:53.959Z,0.80
2022-08-05T07:13:59.913Z,1.73
2022-08-05T07:17:56.413Z,1.00
2022-08-05T07:22:28.215Z,0.80
2022-08-05T07:24:58.576Z,1.27
2022-08-05T07:27:27.535Z,0.70
2022-08-05T07:30:25.509Z,0.85
2022-08-05T07:32:57.787Z,0.70
2022-08-05T07:36:02.190Z,0.93
2022-08-05T07:38:26.458Z,1.23
2022-08-05T07:41:04.510Z,0.70
2022-08-05T07:43:47.064Z,0.95
2022-08-05T07:46:24.581Z,1.17
2022-08-05T07:49:02.408Z,1.20
2022-08-05T07:51:41.110Z,0.90
2022-08-05T07:54:26.754Z,1.30
2022-08-05T07:57:01.306Z,0.80
2022-08-05T07:59:42.419Z,0.77
2022-08-05T08:02:16.971Z,1.00
2022-08-05T08:04:48.753Z,1.08
2022-08-05T08:07:17.998Z,0.98
2022-08-05T08:09:46.060Z,1.05
2022-08-05T08:12:35.429Z,1.05
2022-08-05T08:15:02.408Z,0.80
2022-08-05T08:17:31.318Z,0.63
2022-08-05T08:20:43.454Z,0.70
2022-08-05T08:22:51.376Z,0.90
2022-08-05T08:25:26.926Z,0.60
2022-08-05T08:28:06.703Z,0.90
2022-08-05T08:30:47.413Z,0.70
2022-08-05T08:33:16.783Z,0.60
2022-08-05T08:35:52.393Z,0.80
2022-08-05T08:38:35.142Z,0.80
2022-08-05T08:41:07.285Z,0.80
2022-08-05T08:45:24.391Z,0.82
2022-08-05T08:46:24.705Z,0.70
2022-08-05T08:49:07.935Z,0.55
2022-08-05T08:52:03.553Z,0.57
2022-08-05T08:54:31.175Z,0.73
2022-08-05T08:57:00.195Z,0.70
2022-08-05T08:59:33.802Z,0.70
2022-08-05T09:02:02.355Z,0.80
2022-08-05T09:04:30.091Z,0.60
2022-08-05T09:06:58.753Z,0.70
2022-08-05T09:09:32.521Z,1.10
2022-08-05T09:12:13.564Z,0.88
2022-08-05T09:14:56.990Z,0.88
2022-08-05T09:17:43.040Z,0.50
2022-08-05T09:20:21.053Z,0.60
2022-08-05T09:23:07.852Z,0.57
2022-08-05T09:26:02.276Z,0.63
2022-08-05T09:28:32.601Z,0.70
2022-08-05T09:31:22.522Z,0.70
2022-08-05T09:33:53.990Z,0.63
2022-08-05T09:36:21.543Z,0.50
2022-08-05T09:39:02.684Z,0.73
2022-08-05T09:41:32.831Z,0.50
2022-08-05T09:44:05.828Z,0.50
2022-08-05T09:46:34.987Z,1.10
2022-08-05T09:49:19.445Z,0.55
2022-08-05T09:51:50.070Z,0.70
2022-08-05T09:54:21.246Z,0.70
2022-08-05T09:56:57.354Z,0.70
2022-08-05T09:59:27.786Z,1.00
2022-08-05T10:01:57.941Z,0.77
2022-08-05T10:04:35.909Z,0.50
2022-08-05T10:07:20.202Z,0.95
2022-08-05T10:10:14.392Z,0.98
2022-08-05T10:12:49.820Z,0.60
2022-08-05T10:15:22.442Z,0.88
2022-08-05T10:18:06.744Z,0.90
2022-08-05T10:20:35.231Z,0.88
2022-08-05T10:23:03.395Z,0.98
2022-08-05T10:25:30.733Z,0.77
2022-08-05T10:28:16.579Z,0.77
2022-08-05T10:32:49.009Z,0.60
2022-08-05T10:33:35.197Z,0.60
2022-08-05T10:36:06.771Z,0.50
2022-08-05T10:38:36.505Z,0.70
2022-08-05T10:41:03.825Z,0.50
2022-08-05T10:43:46.980Z,0.55
2022-08-05T10:46:17.881Z,0.50
2022-08-05T10:48:56.933Z,0.75
2022-08-05T10:51:28.383Z,0.40
2022-08-05T10:54:02.075Z,1.00
2022-08-05T10:56:53.160Z,0.50
2022-08-05T11:00:02.415Z,0.80
2022-08-05T11:02:37.973Z,0.50
2022-08-05T11:05:04.173Z,0.60
2022-08-05T11:07:32.845Z,0.73
2022-08-05T11:10:23.250Z,0.63
2022-08-05T11:12:55.967Z,0.63
2022-08-05T11:16:00.779Z,0.70
2022-08-05T11:18:32.263Z,0.63
2022-08-05T11:21:02.158Z,0.60
2022-08-05T11:24:03.783Z,0.60
2022-08-05T11:26:32.062Z,0.98
2022-08-05T11:29:06.846Z,0.70
2022-08-05T11:31:57.800Z,0.80
2022-08-05T11:34:38.091Z,0.90
2022-08-05T11:37:06.109Z,1.08
2022-08-05T11:39:55.576Z,0.95
2022-08-05T11:42:28.367Z,0.88
2022-08-05T11:45:02.400Z,0.93
2022-08-05T11:47:49.819Z,0.82
2022-08-05T11:50:18.161Z,0.90
2022-08-05T11:52:45.983Z,0.70
2022-08-05T11:55:15.734Z,0.80
2022-08-05T11:58:10.649Z,0.60
2022-08-05T12:00:38.036Z,0.50
2022-08-05T12:03:28.930Z,0.40
2022-08-05T12:06:06.432Z,0.80
2022-08-05T12:08:51.177Z,0.65
2022-08-05T12:11:20.742Z,0.40
2022-08-05T12:14:08.427Z,0.73
2022-08-05T12:16:39.622Z,0.52
2022-08-05T12:19:08.355Z,0.80
2022-08-05T12:21:39.062Z,0.43
2022-08-05T12:24:07.586Z,0.97
2022-08-05T12:26:39.309Z,0.60
2022-08-05T12:29:16.437Z,0.60
2022-08-05T12:31:49.967Z,0.70
2022-08-05T12:34:23.711Z,0.52
2022-08-05T12:36:56.107Z,0.80
2022-08-05T12:39:34.566Z,0.60
2022-08-05T12:42:08.621Z,0.75
2022-08-05T12:44:35.900Z,0.52
2022-08-05T12:47:03.750Z,0.50
2022-08-05T12:50:03.836Z,0.80
2022-08-05T12:52:38.768Z,0.50
2022-08-05T12:55:21.995Z,0.50
2022-08-05T12:58:50.974Z,0.80
2022-08-05T13:02:03.860Z,0.43
2022-08-05T13:03:32.086Z,0.50
2022-08-05T13:06:00.836Z,0.95
2022-08-05T13:08:32.265Z,0.73
2022-08-05T13:11:03.403Z,0.55
2022-08-05T13:14:06.602Z,0.57
2022-08-05T13:16:20.766Z,0.70
2022-08-05T13:18:55.297Z,0.55
2022-08-05T13:21:27.981Z,0.60
2022-08-05T13:24:04.981Z,0.50
2022-08-05T13:26:32.314Z,0.40
2022-08-05T13:28:59.621Z,0.50
2022-08-05T13:32:02.851Z,0.50
2022-08-05T13:34:21.275Z,0.50
2022-08-05T13:36:52.759Z,0.60
2022-08-05T13:40:13.513Z,0.60
2022-08-05T13:42:07.710Z,0.50
2022-08-05T13:44:45.321Z,0.68
2022-08-05T13:47:35.511Z,0.60
2022-08-05T13:50:01.404Z,0.50
2022-08-05T13:52:35.248Z,0.50
2022-08-05T13:55:07.885Z,0.40
2022-08-05T13:57:50.678Z,0.55
2022-08-05T14:00:19.114Z,0.55
2022-08-05T14:02:54.769Z,0.63
2022-08-05T14:05:47.919Z,0.47
2022-08-05T14:08:11.264Z,0.50
2022-08-05T14:10:49.012Z,0.40
2022-08-05T14:13:16.466Z,0.80
2022-08-05T14:16:05.573Z,0.50
2022-08-05T14:18:31.134Z,0.55
2022-08-05T14:21:00.115Z,0.53
2022-08-05T14:23:36.456Z,0.70
2022-08-05T14:26:04.798Z,0.63
2022-08-05T14:28:33.614Z,0.73
2022-08-05T14:31:01.870Z,0.40
2022-08-05T14:33:32.663Z,0.40
2022-08-05T14:36:21.368Z,0.47
2022-08-05T14:38:49.342Z,0.60
2022-08-05T14:41:17.679Z,0.85
2022-08-05T14:44:01.881Z,0.60
2022-08-05T14:46:35.125Z,0.63
2022-08-05T14:49:06.918Z,0.55
2022-08-05T14:51:43.011Z,0.60
2022-08-05T14:54:28.638Z,0.45
2022-08-05T14:56:57.903Z,0.82
2022-08-05T14:59:29.511Z,0.70
2022-08-05T15:02:02.809Z,0.70
2022-08-05T15:04:30.299Z,0.70
2022-08-05T15:06:57.868Z,1.23
2022-08-05T15:09:52.287Z,0.80
2022-08-05T15:12:16.696Z,0.80
2022-08-05T15:14:50.244Z,0.90
2022-08-05T15:17:47.231Z,0.68
2022-08-05T15:20:06.478Z,1.23
2022-08-05T15:22:37.283Z,0.70
2022-08-05T15:25:13.600Z,0.80
2022-08-05T15:27:42.930Z,0.73
2022-08-05T15:30:11.051Z,0.77
2022-08-05T15:32:41.667Z,0.77
2022-08-05T15:35:10.670Z,0.70
2022-08-05T15:38:09.218Z,0.80
2022-08-05T15:41:04.617Z,0.73
2022-08-05T15:43:20.066Z,0.70
2022-08-05T15:45:48.042Z,0.70
2022-08-05T15:48:28.547Z,0.70
2022-08-05T15:50:56.470Z,0.57
2022-08-05T15:53:26.359Z,0.50
2022-08-05T15:56:03.010Z,0.80
2022-08-05T15:58:36.898Z,0.65
2022-08-05T16:01:17.271Z,0.77
2022-08-05T16:03:45.296Z,0.60
2022-08-05T16:06:20.095Z,0.70
2022-08-05T16:08:50.254Z,0.60
2022-08-05T16:11:20.837Z,0.63
2022-08-05T16:14:06.177Z,0.90
2022-08-05T16:16:35.198Z,0.83
2022-08-05T16:19:03.380Z,0.63
2022-08-05T16:21:58.818Z,0.80
2022-08-05T16:24:41.191Z,0.60
2022-08-05T16:27:07.286Z,0.75
2022-08-05T16:29:37.008Z,0.70
2022-08-05T16:32:06.525Z,0.60
2022-08-05T16:34:37.338Z,0.70
2022-08-05T16:38:00.383Z,1.00
2022-08-05T16:40:05.735Z,0.93
2022-08-05T16:42:36.011Z,0.80
2022-08-05T16:45:03.847Z,1.00
2022-08-05T16:47:54.364Z,0.90
2022-08-05T16:50:24.777Z,1.10
2022-08-05T16:52:52.023Z,0.90
2022-08-05T16:55:20.400Z,1.07
2022-08-05T16:57:53.813Z,1.00
2022-08-05T17:00:34.713Z,1.10
2022-08-05T17:03:15.429Z,0.90
2022-08-05T17:05:51.727Z,1.20
2022-08-05T17:08:36.299Z,2.97
2022-08-05T17:11:08.770Z,1.13
2022-08-05T17:13:41.479Z,0.60
2022-08-05T17:16:27.874Z,1.40
2022-08-05T17:18:56.840Z,0.90
2022-08-05T17:21:24.224Z,1.00
2022-08-05T17:24:04.568Z,0.88
2022-08-05T17:26:36.172Z,0.50
2022-08-05T17:29:09.869Z,1.00
2022-08-05T17:31:56.392Z,0.50
2022-08-05T17:34:30.130Z,0.67
2022-08-05T17:37:00.604Z,0.70
2022-08-05T17:39:33.452Z,0.85
2022-08-05T17:42:18.920Z,0.98
2022-08-05T17:44:50.255Z,0.90
2022-08-05T17:47:22.155Z,0.93
2022-08-05T17:49:59.598Z,1.08
2022-08-05T17:52:32.517Z,1.67
2022-08-05T17:55:00.068Z,3.30
2022-08-05T17:57:27.887Z,1.25
2022-08-05T18:00:04.885Z,1.10
2022-08-05T18:02:36.434Z,0.95
2022-08-05T18:05:07.557Z,1.00
2022-08-05T18:07:41.951Z,1.00
2022-08-05T18:10:11.113Z,1.33
2022-08-05T18:12:38.775Z,1.03
2022-08-05T18:15:06.662Z,1.40
2022-08-05T18:18:00.596Z,1.30
2022-08-05T18:20:29.341Z,1.85
2022-08-05T18:23:04.876Z,1.27
2022-08-05T18:25:38.841Z,1.40
2022-08-05T18:28:07.183Z,1.08
2022-08-05T18:30:39.058Z,0.98
2022-08-05T18:33:08.553Z,1.33
2022-08-05T18:36:01.270Z,1.35
2022-08-05T18:38:30.643Z,1.53
2022-08-05T18:41:53.595Z,1.52
2022-08-05T18:43:49.130Z,1.20
2022-08-05T18:46:20.210Z,1.20
2022-08-05T18:48:51.524Z,1.13
2022-08-05T18:52:06.356Z,1.30
2022-08-05T18:54:31.218Z,1.00
2022-08-05T18:57:02.109Z,0.90
2022-08-05T18:59:43.129Z,1.10
2022-08-05T19:02:28.352Z,0.90
2022-08-05T19:05:03.207Z,1.20
2022-08-05T19:07:46.205Z,1.70
2022-08-05T19:10:18.239Z,1.00
2022-08-05T19:12:48.419Z,1.23
2022-08-05T19:15:56.718Z,1.08
2022-08-05T19:18:09.151Z,1.00
2022-08-05T19:20:41.819Z,0.90
2022-08-05T19:24:03.502Z,1.17
2022-08-05T19:26:02.929Z,1.20
2022-08-05T19:28:34.802Z,1.17
2022-08-05T19:31:05.728Z,1.20
2022-08-05T19:33:36.892Z,1.67
2022-08-05T19:36:06.294Z,0.85
2022-08-05T19:38:35.628Z,1.23
2022-08-05T19:41:07.395Z,1.00
2022-08-05T19:44:06.491Z,0.90
2022-08-05T19:46:29.641Z,1.20
2022-08-05T19:49:01.071Z,0.80
2022-08-05T19:52:05.301Z,1.15
2022-08-05T19:54:25.490Z,1.30
2022-08-05T19:56:58.705Z,1.20
2022-08-05T19:59:55.053Z,1.10
2022-08-05T20:02:14.856Z,1.40
2022-08-05T20:04:45.715Z,1.92
2022-08-05T20:07:14.107Z,1.40
2022-08-05T20:09:54.339Z,0.90
2022-08-05T20:12:24.882Z,1.50
2022-08-05T20:14:53.162Z,1.60
2022-08-05T20:17:24.040Z,1.40
2022-08-05T20:19:56.924Z,1.02
2022-08-05T20:22:27.048Z,1.50
2022-08-05T20:24:55.501Z,1.00
2022-08-05T20:27:26.910Z,1.70
2022-08-05T20:29:58.961Z,1.45
2022-08-05T20:32:27.673Z,1.38
2022-08-05T20:34:55.534Z,1.37
2022-08-05T20:38:06.705Z,1.20
2022-08-05T20:40:10.971Z,1.05
2022-08-05T20:42:38.370Z,1.40
2022-08-05T20:45:06.789Z,1.13
2022-08-05T20:47:34.136Z,1.30
2022-08-05T20:50:07.941Z,1.08
2022-08-05T20:52:41.477Z,0.95
2022-08-05T20:55:54.638Z,0.75
2022-08-05T20:57:57.219Z,0.80
2022-08-05T21:00:44.277Z,1.07
2022-08-05T21:03:11.854Z,0.90
2022-08-05T21:05:53.666Z,0.70
2022-08-05T21:08:26.534Z,0.85
2022-08-05T21:11:11.635Z,0.98
2022-08-05T21:13:48.523Z,1.10
2022-08-05T21:16:29.476Z,1.20
2022-08-05T21:19:00.324Z,1.20
2022-08-05T21:21:44.297Z,0.88
2022-08-05T21:24:16.176Z,1.35
2022-08-05T21:26:53.171Z,1.20
2022-08-05T21:29:31.326Z,1.33
2022-08-05T21:31:59.586Z,1.50
2022-08-05T21:34:28.327Z,1.50
2022-08-05T21:36:59.161Z,1.33
2022-08-05T21:39:28.084Z,1.20
2022-08-05T21:42:01.065Z,1.20
2022-08-05T21:44:29.738Z,1.15
2022-08-05T21:46:58.189Z,1.23
2022-08-05T21:49:58.858Z,1.27
2022-08-05T21:52:21.456Z,1.13
2022-08-05T21:54:55.152Z,1.30
2022-08-05T21:57:31.696Z,1.02
2022-08-05T22:00:10.732Z,1.10
2022-08-05T22:02:42.513Z,0.98
2022-08-05T22:05:10.615Z,1.40
2022-08-05T22:07:39.408Z,1.23
2022-08-05T22:10:27.164Z,1.45
2022-08-05T22:12:57.146Z,1.00
2022-08-05T22:16:00.852Z,1.13
2022-08-05T22:18:12.988Z,1.07
2022-08-05T22:20:44.133Z,1.10
2022-08-05T22:24:03.117Z,1.25
2022-08-05T22:26:36.048Z,1.30
2022-08-05T22:29:03.809Z,1.25
2022-08-05T22:31:31.661Z,0.70
2022-08-05T22:34:12.884Z,0.85
2022-08-05T22:36:53.111Z,0.85
2022-08-05T22:39:21.509Z,1.27
2022-08-05T22:42:09.564Z,1.00
2022-08-05T22:44:36.491Z,1.00
2022-08-05T22:47:06.006Z,1.10
2022-08-05T22:50:17.673Z,1.50
2022-08-05T22:52:30.554Z,1.02
2022-08-05T22:55:01.891Z,1.02
2022-08-05T22:57:34.058Z,1.30
2022-08-05T23:00:04.656Z,1.05
2022-08-05T23:02:32.460Z,1.33
2022-08-05T23:05:02.144Z,1.08
2022-08-05T23:07:32.870Z,1.02
2022-08-05T23:10:13.107Z,1.10
2022-08-05T23:12:40.345Z,1.17
2022-08-05T23:15:11.869Z,1.40
2022-08-05T23:18:01.056Z,1.35
2022-08-05T23:20:26.589Z,1.20
2022-08-05T23:22:56.232Z,1.27
2022-08-05T23:25:54.924Z,1.70
2022-08-05T23:28:12.042Z,1.25
2022-08-05T23:30:43.419Z,1.10
2022-08-05T23:33:16.113Z,1.25
2022-08-05T23:35:49.613Z,1.60
2022-08-05T23:38:17.049Z,1.23
2022-08-05T23:40:49.932Z,1.40
2022-08-05T23:43:25.648Z,1.40
2022-08-05T23:46:05.405Z,1.38
2022-08-05T23:48:59.943Z,1.30
2022-08-05T23:51:54.893Z,1.52
2022-08-05T23:54:25.468Z,1.77
2022-08-05T23:56:54.287Z,1.40
2022-08-05T23:59:22.276Z,1.40
